Terminal Aerodrome Forecast
Issued by NWS Kansas City/Pleasant Hill, MO

Home | Current Version | Previous Version | Text Only | Print | Product List | Glossary On
Versions: 1 2 3 4 5 6 7 8 9 10 11 12
235
FTUS43 KEAX 111123
TAFMCI
TAF
KMCI 111123Z 1112/1212 25009KT P6SM SCT250
     FM111500 27014G24KT P6SM SCT250
     FM111700 30022G35KT P6SM FEW250
     FM112200 32020G33KT P6SM BKN040
     FM120400 34014G26KT P6SM SCT110
     FM120700 34010KT P6SM FEW250=

USA.gov is the U.S. government's official web portal to all federal, state and local government web resources and services.